createdAt,value
2023-05-25T00:00:15.063Z,91.96
2023-05-25T00:01:17.163Z,91.32
2023-05-25T00:02:19.289Z,90.99
2023-05-25T00:03:21.373Z,91.04
2023-05-25T00:04:23.531Z,91.12
2023-05-25T00:05:26.196Z,91.26
2023-05-25T00:06:29.204Z,91.74
2023-05-25T00:07:31.483Z,92.13
2023-05-25T00:08:33.412Z,92.30
2023-05-25T00:09:35.348Z,92.52
2023-05-25T00:10:38.403Z,92.15
2023-05-25T00:11:40.373Z,91.65
2023-05-25T00:12:42.471Z,91.48
2023-05-25T00:13:44.460Z,91.75
2023-05-25T00:14:46.554Z,91.45
2023-05-25T00:15:49.211Z,91.44
2023-05-25T00:16:51.363Z,91.00
2023-05-25T00:17:53.352Z,91.71
2023-05-25T00:18:55.430Z,92.65
2023-05-25T00:19:59.211Z,92.96
2023-05-25T00:21:01.366Z,92.98
2023-05-25T00:22:03.562Z,92.74
2023-05-25T00:23:05.541Z,92.25
2023-05-25T00:24:08.395Z,92.32
2023-05-25T00:25:10.501Z,91.95
2023-05-25T00:26:13.035Z,91.81
2023-05-25T00:27:14.926Z,92.08
2023-05-25T00:28:17.952Z,91.04
2023-05-25T00:29:19.967Z,90.74
2023-05-25T00:30:22.182Z,91.09
2023-05-25T00:31:24.257Z,90.85
2023-05-25T00:32:26.250Z,91.03
2023-05-25T00:33:28.392Z,91.08
2023-05-25T00:34:30.418Z,91.06
2023-05-25T00:35:32.467Z,91.31
2023-05-25T00:36:34.657Z,91.84
2023-05-25T00:37:36.651Z,92.70
2023-05-25T00:38:38.560Z,92.68
2023-05-25T00:39:40.667Z,92.65
2023-05-25T00:40:44.023Z,92.64
2023-05-25T00:41:48.369Z,92.84
2023-05-25T00:42:51.723Z,92.70
2023-05-25T00:43:53.817Z,92.42
2023-05-25T00:44:55.689Z,92.42
2023-05-25T00:45:57.691Z,92.21
2023-05-25T00:47:00.418Z,92.84
2023-05-25T00:48:03.871Z,92.68
2023-05-25T00:49:06.107Z,92.58
2023-05-25T00:50:09.810Z,92.58
2023-05-25T00:51:14.945Z,92.66
2023-05-25T00:52:17.085Z,92.68
2023-05-25T00:53:18.957Z,92.93
2023-05-25T00:54:20.894Z,92.82
2023-05-25T00:55:24.706Z,92.81
2023-05-25T00:56:30.394Z,93.14
2023-05-25T00:57:34.767Z,93.44
2023-05-25T00:58:39.840Z,93.47
2023-05-25T00:59:45.643Z,93.81
2023-05-25T01:00:50.264Z,94.26
2023-05-25T01:01:54.762Z,94.79
2023-05-25T01:02:58.829Z,94.95
2023-05-25T01:04:02.931Z,95.24
2023-05-25T01:05:08.196Z,95.40
2023-05-25T01:06:14.512Z,95.47
2023-05-25T01:07:23.905Z,95.91
2023-05-25T01:08:27.364Z,97.41
2023-05-25T01:09:32.040Z,98.12
2023-05-25T01:10:36.700Z,97.42
2023-05-25T01:11:42.152Z,96.72
2023-05-25T01:12:45.908Z,95.95
2023-05-25T01:13:50.396Z,95.05
2023-05-25T01:14:54.539Z,94.65
2023-05-25T01:15:57.401Z,94.34
2023-05-25T01:17:00.058Z,94.56
2023-05-25T01:18:02.141Z,94.55
2023-05-25T01:19:04.109Z,94.94
2023-05-25T01:20:11.317Z,95.60
2023-05-25T01:22:31.438Z,97.12
2023-05-25T01:23:36.378Z,96.85
2023-05-25T01:24:42.060Z,96.14
2023-05-25T01:25:47.812Z,95.65
2023-05-25T01:26:56.451Z,95.36
2023-05-25T01:28:02.128Z,94.89
2023-05-25T01:29:05.751Z,95.01
2023-05-25T01:30:11.881Z,94.51
2023-05-25T01:31:14.333Z,93.88
2023-05-25T01:32:17.984Z,93.44
2023-05-25T01:33:20.632Z,93.16
2023-05-25T01:34:24.253Z,93.01
2023-05-25T01:35:27.489Z,93.13
2023-05-25T01:36:29.616Z,93.19
2023-05-25T01:37:31.757Z,93.37
2023-05-25T01:38:34.702Z,93.91
2023-05-25T01:39:36.599Z,94.24
2023-05-25T01:40:38.738Z,94.35
2023-05-25T01:41:40.714Z,94.03
2023-05-25T01:42:43.041Z,93.98
2023-05-25T01:43:45.350Z,93.98
2023-05-25T01:44:47.910Z,94.10
2023-05-25T01:45:53.742Z,94.29
2023-05-25T01:47:11.753Z,94.22
2023-05-25T01:48:20.328Z,94.40
2023-05-25T01:49:38.123Z,94.99
2023-05-25T01:50:49.684Z,95.25
2023-05-25T01:52:19.812Z,95.55
2023-05-25T01:53:24.830Z,95.53
2023-05-25T01:54:30.539Z,95.56
2023-05-25T01:55:36.138Z,95.19
2023-05-25T01:56:39.535Z,94.88
2023-05-25T01:57:44.811Z,95.04
2023-05-25T01:58:49.905Z,94.95
2023-05-25T01:59:54.565Z,94.48
2023-05-25T02:00:58.312Z,95.28
2023-05-25T02:02:02.677Z,95.21
2023-05-25T02:03:04.969Z,95.77
2023-05-25T02:04:08.198Z,95.80
2023-05-25T02:05:11.220Z,97.02
2023-05-25T02:06:14.903Z,98.17
2023-05-25T02:07:16.943Z,97.94
2023-05-25T02:08:18.865Z,97.14
2023-05-25T02:09:20.973Z,96.62
2023-05-25T02:10:22.985Z,96.56
2023-05-25T02:11:24.935Z,96.97
2023-05-25T02:12:27.137Z,96.11
2023-05-25T02:13:29.274Z,96.65
2023-05-25T02:14:31.321Z,95.99
2023-05-25T02:15:34.342Z,95.02
2023-05-25T02:16:36.502Z,95.47
2023-05-25T02:17:38.540Z,95.83
2023-05-25T02:18:40.550Z,96.26
2023-05-25T02:19:43.107Z,97.31
2023-05-25T02:20:45.257Z,97.76
2023-05-25T02:21:47.182Z,96.84
2023-05-25T02:22:49.066Z,95.95
2023-05-25T02:23:52.203Z,95.30
2023-05-25T02:24:54.122Z,95.98
2023-05-25T02:25:56.117Z,96.23
2023-05-25T02:26:58.138Z,95.71
2023-05-25T02:28:00.176Z,95.57
2023-05-25T02:29:03.520Z,95.45
2023-05-25T02:30:07.180Z,95.08
2023-05-25T02:31:09.299Z,95.30
2023-05-25T02:32:11.750Z,95.42
2023-05-25T02:33:13.708Z,95.78
2023-05-25T02:34:15.763Z,95.91
2023-05-25T02:35:17.671Z,95.63
2023-05-25T02:36:20.398Z,95.39
2023-05-25T02:37:22.404Z,95.32
2023-05-25T02:38:24.950Z,95.90
2023-05-25T02:39:26.851Z,95.60
2023-05-25T02:40:28.862Z,94.91
2023-05-25T02:41:30.944Z,95.55
2023-05-25T02:42:34.905Z,95.45
2023-05-25T02:43:36.937Z,96.18
2023-05-25T02:44:39.004Z,95.97
2023-05-25T02:45:40.942Z,96.67
2023-05-25T02:46:43.251Z,96.58
2023-05-25T02:47:45.366Z,96.56
2023-05-25T02:48:47.444Z,95.85
2023-05-25T02:49:49.448Z,95.55
2023-05-25T02:50:51.654Z,95.47
2023-05-25T02:51:53.719Z,96.60
2023-05-25T02:52:55.887Z,96.14
2023-05-25T02:53:57.920Z,96.49
2023-05-25T02:55:00.249Z,96.19
2023-05-25T02:56:03.226Z,96.07
2023-05-25T02:57:05.981Z,97.22
2023-05-25T02:58:08.591Z,96.80
2023-05-25T02:59:10.496Z,96.37
2023-05-25T03:00:14.555Z,96.15
2023-05-25T03:01:16.668Z,95.80
2023-05-25T03:02:18.773Z,95.40
2023-05-25T03:03:20.829Z,95.58
2023-05-25T03:04:22.861Z,95.59
2023-05-25T03:05:24.758Z,95.20
2023-05-25T03:06:27.062Z,94.43
2023-05-25T03:07:29.067Z,95.05
2023-05-25T03:08:30.970Z,96.15
2023-05-25T03:09:32.999Z,95.93
2023-05-25T03:10:35.110Z,96.33
2023-05-25T03:11:37.085Z,97.10
2023-05-25T03:12:38.984Z,98.21
2023-05-25T03:13:41.012Z,99.59
2023-05-25T03:14:43.065Z,99.51
2023-05-25T03:15:45.194Z,98.61
2023-05-25T03:16:47.696Z,98.31
2023-05-25T03:17:49.854Z,97.57
2023-05-25T03:18:52.027Z,96.85
2023-05-25T03:19:54.092Z,96.23
2023-05-25T03:20:56.360Z,95.64
2023-05-25T03:21:58.391Z,95.29
2023-05-25T03:23:01.792Z,94.95
2023-05-25T03:24:04.359Z,94.77
2023-05-25T03:25:07.457Z,94.46
2023-05-25T03:26:09.792Z,94.78
2023-05-25T03:27:12.171Z,95.65
2023-05-25T03:28:14.308Z,95.66
2023-05-25T03:29:16.361Z,95.29
2023-05-25T03:30:18.499Z,94.80
2023-05-25T03:31:20.676Z,94.24
2023-05-25T03:32:22.881Z,93.96
2023-05-25T03:33:26.045Z,93.31
2023-05-25T03:34:30.266Z,93.04
2023-05-25T03:35:32.539Z,93.04
2023-05-25T03:36:34.843Z,92.53
2023-05-25T03:37:37.328Z,92.09
2023-05-25T03:38:42.398Z,91.89
2023-05-25T03:39:44.491Z,91.78
2023-05-25T03:40:46.757Z,91.84
2023-05-25T03:41:48.899Z,91.70
2023-05-25T03:42:51.067Z,91.42
2023-05-25T03:43:53.154Z,91.67
2023-05-25T03:44:55.619Z,91.76
2023-05-25T03:45:58.737Z,92.02
2023-05-25T03:47:01.332Z,91.89
2023-05-25T03:48:04.171Z,91.30
2023-05-25T03:49:06.568Z,91.15
2023-05-25T03:50:10.493Z,90.84
2023-05-25T03:51:12.539Z,90.80
2023-05-25T03:52:14.778Z,91.48
2023-05-25T03:53:17.317Z,91.59
2023-05-25T03:54:19.370Z,91.15
2023-05-25T03:55:21.559Z,91.00
2023-05-25T03:56:23.689Z,90.42
2023-05-25T03:57:25.888Z,90.04
2023-05-25T03:58:28.182Z,89.76
2023-05-25T03:59:31.117Z,89.71
2023-05-25T04:00:33.356Z,89.44
2023-05-25T04:01:35.658Z,89.25
2023-05-25T04:02:37.871Z,88.95
2023-05-25T04:03:40.298Z,88.87
2023-05-25T04:04:42.525Z,88.55
2023-05-25T04:05:45.051Z,88.53
2023-05-25T04:06:47.462Z,87.91
2023-05-25T04:07:49.523Z,87.20
2023-05-25T04:08:52.340Z,86.84
2023-05-25T04:09:54.446Z,86.07
2023-05-25T04:10:56.626Z,84.10
2023-05-25T04:11:58.672Z,83.27
2023-05-25T04:13:00.747Z,82.48
2023-05-25T04:14:02.896Z,81.54
2023-05-25T04:15:06.919Z,80.69
2023-05-25T04:16:09.756Z,79.80
2023-05-25T04:17:12.004Z,78.79
2023-05-25T04:18:14.278Z,77.80
2023-05-25T04:19:16.274Z,77.84
2023-05-25T04:20:18.577Z,77.86
2023-05-25T04:21:21.052Z,76.87
2023-05-25T04:22:23.131Z,75.95
2023-05-25T04:23:25.257Z,74.87
2023-05-25T04:24:28.365Z,73.98
2023-05-25T04:25:30.479Z,73.10
2023-05-25T04:26:33.144Z,72.21
2023-05-25T04:27:35.920Z,71.96
2023-05-25T04:28:38.670Z,72.01
2023-05-25T04:29:40.980Z,71.02
2023-05-25T04:30:43.111Z,71.16
2023-05-25T04:31:45.165Z,70.80
2023-05-25T04:32:47.246Z,71.42
2023-05-25T04:33:49.359Z,71.27
2023-05-25T04:34:51.440Z,71.79
2023-05-25T04:35:53.335Z,70.13
2023-05-25T04:36:55.430Z,69.86
2023-05-25T04:37:57.344Z,68.92
2023-05-25T04:38:59.427Z,68.53
2023-05-25T04:40:01.343Z,68.99
2023-05-25T04:41:03.335Z,68.17
2023-05-25T04:42:05.957Z,66.91
2023-05-25T04:43:08.036Z,66.35
2023-05-25T04:44:10.699Z,66.35
2023-05-25T04:45:13.470Z,66.00
2023-05-25T04:46:15.979Z,65.49
2023-05-25T04:47:18.745Z,65.22
2023-05-25T04:48:20.978Z,65.09
2023-05-25T04:49:23.342Z,64.75
2023-05-25T04:50:25.409Z,65.53
2023-05-25T04:51:27.336Z,67.92
2023-05-25T04:52:30.549Z,68.66
2023-05-25T04:53:32.996Z,68.61
2023-05-25T04:54:34.929Z,68.32
2023-05-25T04:55:38.958Z,68.52
2023-05-25T04:56:41.126Z,68.14
2023-05-25T04:57:43.181Z,68.35
2023-05-25T04:58:45.100Z,68.57
2023-05-25T04:59:47.284Z,68.01
2023-05-25T05:00:51.226Z,67.17
2023-05-25T05:01:53.320Z,67.00
2023-05-25T05:02:56.268Z,66.10
2023-05-25T05:03:58.497Z,66.61
2023-05-25T05:05:01.263Z,64.90
2023-05-25T05:06:03.767Z,63.76
2023-05-25T05:07:05.779Z,62.76
2023-05-25T05:08:07.670Z,61.94
2023-05-25T05:09:09.719Z,61.44
2023-05-25T05:10:12.580Z,60.52
2023-05-25T05:11:14.670Z,59.75
2023-05-25T05:12:16.599Z,59.17
2023-05-25T05:13:18.681Z,58.84
2023-05-25T05:14:20.595Z,58.40
2023-05-25T05:15:22.755Z,58.11
2023-05-25T05:16:25.652Z,57.67
2023-05-25T05:17:27.657Z,58.66
2023-05-25T05:18:30.674Z,59.55
2023-05-25T05:19:32.696Z,58.50
2023-05-25T05:20:35.021Z,58.68
2023-05-25T05:21:37.096Z,59.71
2023-05-25T05:22:39.169Z,60.71
2023-05-25T05:23:44.650Z,60.69
2023-05-25T05:24:47.145Z,59.88
2023-05-25T05:25:49.071Z,59.20
2023-05-25T05:26:58.072Z,57.68
2023-05-25T05:27:54.995Z,56.39
2023-05-25T05:28:57.039Z,57.14
2023-05-25T05:29:59.057Z,54.56
2023-05-25T05:31:01.414Z,54.56
2023-05-25T05:32:03.583Z,54.34
2023-05-25T05:33:05.554Z,54.66
2023-05-25T05:34:07.698Z,53.65
2023-05-25T05:35:09.894Z,53.42
2023-05-25T05:36:12.745Z,52.86
2023-05-25T05:37:14.874Z,52.44
2023-05-25T05:38:18.349Z,53.35
2023-05-25T05:39:20.348Z,52.58
2023-05-25T05:40:22.374Z,52.14
2023-05-25T05:41:24.377Z,51.88
2023-05-25T05:42:26.418Z,52.58
2023-05-25T05:43:28.386Z,52.97
2023-05-25T05:44:30.405Z,53.18
2023-05-25T05:45:32.426Z,53.22
2023-05-25T05:46:34.571Z,52.69
2023-05-25T05:47:36.629Z,53.14
2023-05-25T05:48:38.995Z,52.63
2023-05-25T05:49:40.985Z,52.23
2023-05-25T05:50:43.002Z,51.54
2023-05-25T05:51:44.898Z,50.47
2023-05-25T05:52:46.799Z,50.66
2023-05-25T05:53:48.682Z,50.36
2023-05-25T05:54:50.726Z,48.64
2023-05-25T05:55:55.856Z,48.30
2023-05-25T05:56:56.831Z,47.71
2023-05-25T05:57:58.989Z,48.13
2023-05-25T05:59:00.890Z,47.96
2023-05-25T06:00:05.883Z,47.72
2023-05-25T06:01:08.011Z,48.24
2023-05-25T06:02:09.998Z,47.80
2023-05-25T06:03:12.213Z,48.99
2023-05-25T06:04:14.453Z,48.10
2023-05-25T06:05:17.064Z,47.32
2023-05-25T06:06:20.326Z,47.39
2023-05-25T06:07:22.224Z,50.06
2023-05-25T06:08:24.145Z,50.06
2023-05-25T06:09:26.115Z,49.56
2023-05-25T06:10:28.199Z,49.78
2023-05-25T06:11:30.100Z,49.67
2023-05-25T06:12:32.123Z,48.43
2023-05-25T06:13:34.134Z,49.31
2023-05-25T06:14:36.121Z,48.71
2023-05-25T06:15:38.895Z,47.78
2023-05-25T06:16:41.151Z,47.84
2023-05-25T06:17:43.350Z,48.22
2023-05-25T06:18:45.470Z,48.29
2023-05-25T06:19:47.568Z,49.32
2023-05-25T06:20:50.018Z,48.91
2023-05-25T06:21:52.087Z,48.56
2023-05-25T06:22:54.088Z,48.99
2023-05-25T06:23:56.194Z,48.73
2023-05-25T06:24:58.106Z,48.15
2023-05-25T06:26:06.194Z,48.02
2023-05-25T06:27:08.239Z,47.62
2023-05-25T06:28:10.930Z,47.42
2023-05-25T06:29:16.699Z,46.60
2023-05-25T06:30:18.370Z,46.10
2023-05-25T06:31:20.351Z,46.20
2023-05-25T06:32:22.464Z,45.64
2023-05-25T06:33:24.577Z,45.18
2023-05-25T06:34:26.458Z,44.82
2023-05-25T06:35:29.424Z,44.27
2023-05-25T06:36:32.389Z,45.25
2023-05-25T06:37:34.502Z,45.03
2023-05-25T06:38:36.909Z,45.81
2023-05-25T06:39:38.794Z,45.05
2023-05-25T06:40:40.980Z,45.52
2023-05-25T06:41:43.061Z,46.39
2023-05-25T06:42:45.373Z,46.05
2023-05-25T06:43:47.273Z,46.62
2023-05-25T06:44:49.311Z,45.42
2023-05-25T06:45:51.361Z,44.82
2023-05-25T06:46:53.408Z,45.85
2023-05-25T06:47:55.418Z,45.32
2023-05-25T06:48:58.972Z,45.27
2023-05-25T06:50:01.385Z,46.22
2023-05-25T06:51:03.609Z,45.87
2023-05-25T06:52:05.611Z,45.32
2023-05-25T06:53:07.637Z,45.29
2023-05-25T06:54:09.508Z,45.81
2023-05-25T06:55:11.648Z,44.88
2023-05-25T06:56:14.156Z,45.18
2023-05-25T06:57:16.050Z,45.15
2023-05-25T06:58:17.962Z,45.85
2023-05-25T06:59:19.857Z,46.16
2023-05-25T07:00:21.976Z,46.10
2023-05-25T07:01:24.037Z,45.16
2023-05-25T07:02:26.694Z,45.38
2023-05-25T07:03:28.786Z,45.90
2023-05-25T07:04:30.798Z,45.48
2023-05-25T07:05:32.776Z,46.34
2023-05-25T07:06:34.908Z,47.46
2023-05-25T07:07:36.867Z,47.04
2023-05-25T07:08:38.764Z,46.38
2023-05-25T07:09:40.692Z,45.67
2023-05-25T07:10:42.685Z,45.24
2023-05-25T07:11:44.586Z,45.19
2023-05-25T07:12:46.486Z,44.87
2023-05-25T07:13:48.593Z,44.44
2023-05-25T07:14:50.889Z,44.44
2023-05-25T07:15:53.030Z,43.97
2023-05-25T07:16:55.228Z,43.37
2023-05-25T07:17:57.410Z,43.58
2023-05-25T07:19:00.314Z,43.20
2023-05-25T07:20:04.405Z,44.56
2023-05-25T07:21:07.654Z,44.94
2023-05-25T07:22:09.725Z,43.93
2023-05-25T07:23:12.216Z,43.24
2023-05-25T07:24:14.238Z,43.97
2023-05-25T07:25:16.271Z,43.47
2023-05-25T07:26:18.432Z,43.70
2023-05-25T07:27:20.323Z,43.89
2023-05-25T07:28:22.337Z,42.84
2023-05-25T07:29:24.255Z,43.55
2023-05-25T07:30:26.741Z,43.72
2023-05-25T07:31:28.652Z,43.45
2023-05-25T07:32:31.087Z,42.48
2023-05-25T07:33:33.136Z,42.52
2023-05-25T07:34:35.333Z,42.63
2023-05-25T07:35:37.288Z,41.95
2023-05-25T07:36:39.285Z,42.82
2023-05-25T07:37:41.208Z,43.83
2023-05-25T07:38:43.101Z,43.93
2023-05-25T07:39:46.073Z,43.52
2023-05-25T07:40:48.188Z,42.82
2023-05-25T07:41:50.090Z,43.71
2023-05-25T07:42:52.598Z,43.66
2023-05-25T07:43:54.720Z,43.69
2023-05-25T07:44:56.726Z,43.71
2023-05-25T07:45:59.759Z,42.97
2023-05-25T07:47:01.925Z,42.64
2023-05-25T07:48:04.499Z,42.50
2023-05-25T07:49:06.930Z,43.36
2023-05-25T07:50:10.043Z,43.57
2023-05-25T07:51:11.952Z,43.02
2023-05-25T07:52:14.051Z,42.79
2023-05-25T07:53:16.252Z,42.24
2023-05-25T07:54:19.630Z,41.86
2023-05-25T07:55:22.268Z,41.22
2023-05-25T07:56:24.389Z,40.81
2023-05-25T07:57:26.689Z,40.73
2023-05-25T07:58:28.676Z,40.45
2023-05-25T07:59:30.584Z,39.99
2023-05-25T08:00:32.934Z,40.54
2023-05-25T08:01:34.931Z,40.93
2023-05-25T08:02:36.908Z,40.13
2023-05-25T08:03:48.881Z,39.33
2023-05-25T08:04:43.012Z,39.05
2023-05-25T08:05:45.559Z,39.54
2023-05-25T08:06:50.293Z,39.41
2023-05-25T08:07:52.379Z,40.81
2023-05-25T08:08:54.300Z,41.80
2023-05-25T08:09:56.265Z,40.92
2023-05-25T08:10:59.536Z,40.56
2023-05-25T08:12:24.149Z,41.04
2023-05-25T08:13:05.275Z,41.60
2023-05-25T08:14:07.308Z,41.17
2023-05-25T08:15:09.445Z,40.61
2023-05-25T08:16:11.989Z,39.42
2023-05-25T08:17:13.967Z,40.18
2023-05-25T08:18:15.986Z,38.47
2023-05-25T08:19:17.887Z,37.03
2023-05-25T08:20:20.037Z,37.33
2023-05-25T08:21:22.439Z,37.94
2023-05-25T08:22:24.342Z,39.88
2023-05-25T08:23:26.493Z,40.21
2023-05-25T08:24:28.367Z,39.75
2023-05-25T08:25:30.286Z,39.51
2023-05-25T08:26:41.702Z,39.99
2023-05-25T08:27:36.795Z,39.84
2023-05-25T08:28:38.921Z,40.92
2023-05-25T08:29:40.942Z,40.50
2023-05-25T08:30:44.455Z,41.15
2023-05-25T08:31:46.469Z,41.88
2023-05-25T08:32:48.561Z,43.03
2023-05-25T08:33:50.564Z,42.66
2023-05-25T08:34:52.461Z,42.37
2023-05-25T08:35:54.409Z,43.13
2023-05-25T08:36:57.135Z,43.57
2023-05-25T08:37:59.061Z,42.40
2023-05-25T08:39:02.261Z,42.73
2023-05-25T08:40:07.324Z,42.64
2023-05-25T08:41:11.440Z,42.31
2023-05-25T08:42:13.456Z,43.37
2023-05-25T08:43:15.362Z,43.60
2023-05-25T08:44:17.352Z,43.36
2023-05-25T08:45:33.506Z,43.71
2023-05-25T08:46:30.736Z,43.75
2023-05-25T08:47:35.459Z,43.84
2023-05-25T08:48:42.483Z,43.37
2023-05-25T08:49:44.803Z,43.85
2023-05-25T08:50:48.539Z,43.61
2023-05-25T08:51:52.820Z,43.55
2023-05-25T08:52:56.888Z,43.17
2023-05-25T08:54:02.603Z,43.08
2023-05-25T08:55:07.821Z,43.15
2023-05-25T08:56:22.805Z,43.20
2023-05-25T08:57:43.835Z,43.99
2023-05-25T08:58:52.180Z,42.49
2023-05-25T09:00:04.228Z,42.69
2023-05-25T09:01:07.978Z,43.55
2023-05-25T09:02:30.500Z,44.31
2023-05-25T09:03:34.263Z,44.57
2023-05-25T09:04:37.395Z,44.15
2023-05-25T09:05:39.539Z,43.06
2023-05-25T09:06:42.054Z,43.06
2023-05-25T09:07:45.874Z,42.79
2023-05-25T09:08:48.486Z,43.24
2023-05-25T09:09:51.387Z,41.93
2023-05-25T09:10:55.786Z,42.66
2023-05-25T09:11:58.741Z,41.55
2023-05-25T09:13:12.758Z,41.26
2023-05-25T09:14:07.571Z,42.46
2023-05-25T09:15:11.377Z,41.67
2023-05-25T09:16:15.778Z,42.17
2023-05-25T09:17:17.887Z,40.51
2023-05-25T09:18:20.164Z,39.48
2023-05-25T09:19:22.225Z,39.66
2023-05-25T09:20:25.256Z,40.11
2023-05-25T09:21:27.412Z,40.15
2023-05-25T09:22:29.360Z,40.29
2023-05-25T09:23:32.015Z,39.60
2023-05-25T09:24:33.931Z,39.54
2023-05-25T09:25:37.946Z,40.01
2023-05-25T09:26:41.018Z,39.34
2023-05-25T09:27:46.077Z,39.76
2023-05-25T09:28:48.028Z,41.04
2023-05-25T09:29:53.249Z,39.70
2023-05-25T09:30:56.022Z,40.45
2023-05-25T09:31:59.814Z,40.00
2023-05-25T09:33:13.375Z,40.09
2023-05-25T09:34:15.932Z,40.72
2023-05-25T09:35:18.045Z,41.75
2023-05-25T09:36:21.233Z,43.04
2023-05-25T09:37:23.987Z,41.92
2023-05-25T09:38:26.238Z,42.24
2023-05-25T09:39:29.690Z,42.22
2023-05-25T09:40:33.660Z,43.12
2023-05-25T09:41:36.617Z,43.36
2023-05-25T09:42:39.048Z,43.14
2023-05-25T09:43:44.943Z,42.73
2023-05-25T09:44:45.020Z,43.95
2023-05-25T09:45:47.214Z,44.11
2023-05-25T09:46:50.086Z,43.77
2023-05-25T09:49:09.538Z,44.65
2023-05-25T09:50:11.776Z,44.21
2023-05-25T09:51:13.698Z,44.41
2023-05-25T09:52:15.595Z,44.37
2023-05-25T09:53:17.982Z,43.36
2023-05-25T09:54:21.780Z,42.93
2023-05-25T09:55:23.704Z,42.73
2023-05-25T09:56:27.106Z,43.17
2023-05-25T09:57:29.152Z,43.73
2023-05-25T09:58:31.046Z,43.93
2023-05-25T09:59:33.036Z,43.94
2023-05-25T10:00:35.126Z,43.84
2023-05-25T10:01:37.366Z,45.16
2023-05-25T10:02:40.687Z,45.23
2023-05-25T10:03:59.841Z,44.97
2023-05-25T10:04:50.323Z,45.17
2023-05-25T10:05:53.756Z,45.55
2023-05-25T10:06:56.977Z,45.33
2023-05-25T10:08:01.759Z,45.54
2023-05-25T10:09:07.519Z,45.79
2023-05-25T10:10:12.932Z,46.18
2023-05-25T10:11:15.963Z,46.86
2023-05-25T10:12:19.616Z,46.06
2023-05-25T10:13:22.176Z,46.11
2023-05-25T10:14:29.707Z,45.78
2023-05-25T10:15:32.744Z,46.06
2023-05-25T10:16:38.041Z,45.91
2023-05-25T10:17:46.723Z,46.16
2023-05-25T10:19:10.859Z,46.23
2023-05-25T10:20:14.296Z,46.31
2023-05-25T10:21:18.633Z,46.02
2023-05-25T10:22:41.291Z,45.98
2023-05-25T10:23:53.301Z,46.29
2023-05-25T10:25:08.282Z,46.41
2023-05-25T10:26:17.146Z,46.70
2023-05-25T10:27:27.556Z,46.09
2023-05-25T10:28:29.349Z,46.13
2023-05-25T10:29:34.873Z,46.01
2023-05-25T10:30:38.795Z,46.19
2023-05-25T10:31:41.674Z,47.16
2023-05-25T10:32:45.915Z,47.67
2023-05-25T10:33:52.033Z,47.81
2023-05-25T10:34:52.956Z,48.51
2023-05-25T10:36:09.261Z,48.91
2023-05-25T10:37:02.289Z,50.09
2023-05-25T10:38:05.112Z,50.09
2023-05-25T10:39:09.236Z,50.03
2023-05-25T10:40:12.838Z,50.57
2023-05-25T10:41:15.448Z,51.26
2023-05-25T10:42:19.153Z,51.55
2023-05-25T10:43:23.200Z,51.55
2023-05-25T10:44:25.425Z,52.64
2023-05-25T10:45:28.204Z,52.57
2023-05-25T10:46:30.254Z,52.71
2023-05-25T10:47:33.944Z,53.51
2023-05-25T10:48:41.453Z,53.42
2023-05-25T10:49:58.207Z,53.74
2023-05-25T10:51:00.506Z,53.94
2023-05-25T10:52:02.679Z,53.85
2023-05-25T10:53:10.433Z,54.00
2023-05-25T10:54:13.252Z,54.22
2023-05-25T10:55:15.165Z,54.59
2023-05-25T10:56:17.388Z,54.37
2023-05-25T10:57:22.045Z,55.01
2023-05-25T10:58:26.786Z,55.12
2023-05-25T10:59:29.759Z,55.66
2023-05-25T11:00:32.033Z,55.40
2023-05-25T11:01:37.997Z,55.59
2023-05-25T11:02:49.844Z,55.23
2023-05-25T11:04:10.900Z,55.31
2023-05-25T11:05:29.986Z,55.42
2023-05-25T11:06:39.959Z,55.65
2023-05-25T11:09:03.472Z,56.52
2023-05-25T11:10:07.752Z,56.82
2023-05-25T11:11:09.736Z,56.84
2023-05-25T11:12:19.913Z,56.81
2023-05-25T11:13:38.048Z,56.30
2023-05-25T11:14:40.700Z,56.86
2023-05-25T11:15:42.969Z,57.10
2023-05-25T11:17:05.776Z,57.46
2023-05-25T11:18:12.353Z,58.07
2023-05-25T11:19:14.930Z,59.24
2023-05-25T11:20:26.215Z,59.95
2023-05-25T11:21:29.950Z,60.87
2023-05-25T11:22:33.718Z,61.39
2023-05-25T11:23:56.365Z,62.55
2023-05-25T11:25:00.065Z,62.88
2023-05-25T11:26:05.179Z,63.08
2023-05-25T11:27:07.215Z,63.71
2023-05-25T11:28:09.606Z,63.89
2023-05-25T11:29:14.876Z,64.12
2023-05-25T11:30:18.977Z,63.73
2023-05-25T11:31:29.721Z,63.82
2023-05-25T11:32:31.980Z,63.87
2023-05-25T11:33:33.948Z,64.13
2023-05-25T11:34:36.408Z,64.00
2023-05-25T11:35:38.418Z,63.90
2023-05-25T11:36:41.691Z,63.92
2023-05-25T11:37:47.563Z,63.96
2023-05-25T11:39:02.574Z,63.72
2023-05-25T11:39:54.384Z,63.94
2023-05-25T11:40:56.596Z,63.58
2023-05-25T11:42:03.997Z,63.71
2023-05-25T11:43:08.208Z,63.98
2023-05-25T11:44:10.321Z,63.15
2023-05-25T11:45:14.035Z,62.99
2023-05-25T11:46:18.022Z,63.79
2023-05-25T11:47:22.066Z,63.95
2023-05-25T11:48:24.314Z,63.94
2023-05-25T11:49:27.052Z,63.82
2023-05-25T11:50:29.312Z,64.04
2023-05-25T11:51:31.303Z,63.94
2023-05-25T11:52:34.533Z,63.72
2023-05-25T11:53:41.982Z,63.19
2023-05-25T11:54:45.346Z,63.34
2023-05-25T11:55:53.678Z,63.62
2023-05-25T11:56:55.908Z,63.48
2023-05-25T11:57:59.184Z,64.01
2023-05-25T11:59:01.198Z,63.58
2023-05-25T12:00:04.218Z,63.91
2023-05-25T12:01:16.598Z,63.28
2023-05-25T12:02:19.702Z,63.18
2023-05-25T12:03:31.632Z,62.90
2023-05-25T12:04:33.943Z,62.73
2023-05-25T12:05:39.654Z,62.64
2023-05-25T12:06:41.796Z,62.68
2023-05-25T12:07:44.604Z,62.52
2023-05-25T12:08:46.700Z,62.72
2023-05-25T12:09:49.216Z,62.71
2023-05-25T12:10:51.503Z,62.49
2023-05-25T12:11:53.773Z,62.21
2023-05-25T12:12:55.805Z,62.19
2023-05-25T12:13:58.745Z,62.31
2023-05-25T12:15:00.850Z,62.13
2023-05-25T12:16:03.102Z,62.06
2023-05-25T12:17:06.589Z,61.89
2023-05-25T12:18:08.719Z,61.67
2023-05-25T12:19:11.480Z,61.86
2023-05-25T12:20:16.722Z,61.94
2023-05-25T12:21:20.926Z,61.53
2023-05-25T12:22:23.159Z,61.05
2023-05-25T12:23:25.297Z,61.76
2023-05-25T12:24:28.130Z,61.58
2023-05-25T12:25:42.358Z,60.75
2023-05-25T12:26:34.029Z,60.42
2023-05-25T12:27:36.748Z,60.76
2023-05-25T12:28:39.590Z,60.04
2023-05-25T12:29:46.320Z,59.95
2023-05-25T12:30:48.401Z,59.17
2023-05-25T12:31:50.713Z,58.30
2023-05-25T12:32:55.324Z,58.40
2023-05-25T12:34:18.033Z,58.40
2023-05-25T12:35:20.881Z,57.90
2023-05-25T12:36:39.239Z,57.61
2023-05-25T12:37:41.529Z,58.48
2023-05-25T12:38:47.188Z,58.36
2023-05-25T12:39:49.116Z,57.46
2023-05-25T12:41:06.960Z,56.84
2023-05-25T12:42:13.511Z,56.63
2023-05-25T12:43:15.858Z,56.77
2023-05-25T12:44:23.928Z,55.19
2023-05-25T12:45:26.020Z,55.66
2023-05-25T12:46:28.144Z,55.59
2023-05-25T12:47:30.385Z,55.30
2023-05-25T12:48:33.100Z,55.33
2023-05-25T12:49:34.997Z,55.41
2023-05-25T12:50:39.046Z,55.17
2023-05-25T12:51:41.389Z,55.58
2023-05-25T12:52:45.588Z,55.12
2023-05-25T12:53:51.340Z,54.20
2023-05-25T12:54:53.658Z,53.61
2023-05-25T12:56:03.183Z,53.25
2023-05-25T12:57:06.212Z,52.84
2023-05-25T12:58:11.953Z,52.41
2023-05-25T12:59:14.571Z,52.76
2023-05-25T13:00:16.731Z,52.57
2023-05-25T13:01:18.790Z,53.03
2023-05-25T13:02:21.493Z,53.37
2023-05-25T13:03:23.505Z,52.80
2023-05-25T13:04:26.346Z,52.79
2023-05-25T13:05:31.277Z,52.68
2023-05-25T13:06:33.545Z,52.42
2023-05-25T13:07:35.454Z,52.45
2023-05-25T13:08:37.342Z,52.26
2023-05-25T13:09:39.286Z,52.91
2023-05-25T13:10:41.947Z,52.94
2023-05-25T13:11:44.086Z,52.74
2023-05-25T13:12:46.989Z,52.52
2023-05-25T13:13:48.971Z,52.75
2023-05-25T13:14:51.255Z,53.18
2023-05-25T13:15:53.212Z,53.59
2023-05-25T13:16:55.937Z,53.41
2023-05-25T13:17:58.481Z,52.79
2023-05-25T13:19:01.748Z,52.88
2023-05-25T13:20:04.359Z,53.62
2023-05-25T13:21:06.366Z,53.65
2023-05-25T13:22:08.320Z,53.94
2023-05-25T13:23:10.253Z,54.56
2023-05-25T13:24:12.172Z,55.55
2023-05-25T13:25:14.049Z,53.35
2023-05-25T13:26:18.148Z,52.84
2023-05-25T13:27:21.071Z,51.25
2023-05-25T13:28:23.017Z,50.71
2023-05-25T13:29:25.083Z,49.86
2023-05-25T13:30:27.074Z,49.33
2023-05-25T13:31:28.998Z,49.17
2023-05-25T13:32:31.110Z,48.46
2023-05-25T13:33:33.207Z,48.15
2023-05-25T13:34:35.212Z,47.63
2023-05-25T13:35:37.348Z,48.07
2023-05-25T13:36:39.804Z,48.11
2023-05-25T13:37:41.796Z,48.46
2023-05-25T13:38:44.708Z,49.09
2023-05-25T13:39:46.691Z,49.07